Time;durP1;ratioP1;P1;durP2;ratioP2;P2;SDS_P1;SDS_P2;PMS_P1;PMS_P2;Temp;Humidity;BMP_temperature;BMP_pressure;BME280_temperature;BME280_humidity;BME280_pressure;Samples;Min_cycle;Max_cycle;Signal;HPM_P1;HPM_P2
2022/12/11 00:01:58;;;;;;;66.10;26.20;;;;;;;0.33;91.61;99429.91;103522;1306;22464;-60
2022/12/11 00:04:30;;;;;;;66.20;26.90;;;;;;;0.31;91.30;99426.64;103512;1282;22749;-59
2022/12/11 00:07:02;;;;;;;76.50;29.00;;;;;;;0.26;91.47;99424.02;103587;1282;22485;-58
2022/12/11 00:09:33;;;;;;;75.00;29.20;;;;;;;0.24;91.55;99423.21;103432;1288;25416;-61
2022/12/11 00:12:06;;;;;;;76.80;30.30;;;;;;;0.25;91.74;99425.30;103317;1298;23190;-59
2022/12/11 00:14:37;;;;;;;77.30;28.30;;;;;;;0.26;91.87;99425.20;103607;1306;22797;-59
2022/12/11 00:17:08;;;;;;;72.70;28.40;;;;;;;0.25;91.67;99427.98;103592;1306;25370;-59
2022/12/11 00:19:40;;;;;;;77.50;30.80;;;;;;;0.24;91.69;99432.16;103745;1301;22495;-59
2022/12/11 00:22:11;;;;;;;77.90;30.10;;;;;;;0.25;91.76;99430.34;103511;1306;22470;-59
2022/12/11 00:24:43;;;;;;;70.10;28.70;;;;;;;0.25;91.63;99427.52;103588;1282;22474;-58
2022/12/11 00:27:15;;;;;;;76.60;29.50;;;;;;;0.26;91.79;99429.54;103616;1274;25377;-59
2022/12/11 00:29:46;;;;;;;75.80;28.20;;;;;;;0.28;91.80;99430.19;103559;1306;24112;-59
2022/12/11 00:32:18;;;;;;;69.40;27.90;;;;;;;0.29;91.80;99425.36;103578;1280;22527;-59
2022/12/11 00:34:49;;;;;;;77.20;28.00;;;;;;;0.30;91.69;99432.10;103523;1282;22431;-59
2022/12/11 00:37:21;;;;;;;77.40;30.10;;;;;;;0.29;91.70;99436.98;103573;1291;24221;-58
2022/12/11 00:39:52;;;;;;;77.90;29.80;;;;;;;0.31;91.77;99436.36;103646;1282;22495;-59
2022/12/11 00:42:24;;;;;;;74.20;28.90;;;;;;;0.31;91.76;99436.60;103583;1306;22485;-59
2022/12/11 00:44:57;;;;;;;92.00;30.00;;;;;;;0.34;91.83;99438.41;103639;1306;22734;-59
2022/12/11 00:47:28;;;;;;;79.00;30.50;;;;;;;0.33;91.59;99435.30;103588;1285;22484;-57
2022/12/11 00:50:00;;;;;;;79.50;31.20;;;;;;;0.33;91.58;99434.69;103600;1282;22481;-59
2022/12/11 00:52:31;;;;;;;88.40;34.00;;;;;;;0.31;91.62;99433.40;102884;1273;1477249;-58
2022/12/11 00:55:02;;;;;;;84.50;33.30;;;;;;;0.32;91.79;99432.81;103583;1306;24099;-59
2022/12/11 00:57:34;;;;;;;82.00;32.40;;;;;;;0.35;91.90;99430.41;103663;1306;22494;-59
2022/12/11 01:00:07;;;;;;;82.30;30.30;;;;;;;0.34;91.64;99428.23;103611;1298;24254;-59
2022/12/11 01:02:38;;;;;;;86.30;32.00;;;;;;;0.30;91.37;99423.23;103643;1278;25395;-59
2022/12/11 01:05:11;;;;;;;75.00;28.40;;;;;;;0.27;91.61;99425.73;103546;1306;22497;-59
2022/12/11 01:07:43;;;;;;;78.30;32.40;;;;;;;0.27;91.71;99426.59;103632;1282;22467;-58
2022/12/11 01:10:24;;;;;;;84.60;34.30;;;;;;;0.26;91.78;99431.02;103584;1281;22464;-60
2022/12/11 01:12:57;;;;;;;74.40;32.10;;;;;;;0.25;91.69;99435.48;103661;1282;22468;-59
2022/12/11 01:15:31;;;;;;;74.80;31.20;;;;;;;0.24;91.65;99435.77;103543;1298;22485;-59
2022/12/11 01:18:02;;;;;;;82.70;32.10;;;;;;;0.23;91.68;99436.73;103668;1306;22435;-61
2022/12/11 01:20:34;;;;;;;74.90;29.10;;;;;;;0.24;91.90;99436.86;103669;1281;25243;-58
2022/12/11 01:23:06;;;;;;;83.30;30.20;;;;;;;0.24;91.88;99438.52;103427;1285;22737;-58
2022/12/11 01:25:38;;;;;;;82.00;29.90;;;;;;;0.23;91.94;99442.14;103732;1306;25577;-59
2022/12/11 01:28:10;;;;;;;81.30;28.80;;;;;;;0.24;92.00;99442.35;103675;1285;22573;-59
2022/12/11 01:30:43;;;;;;;82.90;33.90;;;;;;;0.23;91.88;99439.56;103702;1282;22511;-59
2022/12/11 01:33:15;;;;;;;79.70;31.10;;;;;;;0.21;91.94;99440.45;103598;1290;22474;-59
2022/12/11 01:35:46;;;;;;;75.70;28.70;;;;;;;0.22;92.00;99439.43;103663;1306;22493;-58
2022/12/11 01:38:18;;;;;;;77.90;29.80;;;;;;;0.20;91.97;99444.80;103559;1303;22508;-58
2022/12/11 01:40:51;;;;;;;78.30;30.40;;;;;;;0.17;91.91;99441.40;103527;1294;24263;-59
2022/12/11 01:43:26;;;;;;;80.20;28.80;;;;;;;0.14;91.96;99438.13;103593;1292;25375;-59
2022/12/11 01:45:57;;;;;;;77.20;28.10;;;;;;;0.12;92.07;99427.66;103669;1305;25422;-59
2022/12/11 01:48:31;;;;;;;85.30;31.90;;;;;;;0.14;92.27;99432.39;103654;1283;25912;-58
2022/12/11 01:51:05;;;;;;;83.00;27.90;;;;;;;0.17;92.20;99430.05;103633;1275;24291;-59
2022/12/11 01:53:40;;;;;;;73.50;30.00;;;;;;;0.16;92.14;99431.42;103629;1278;25275;-57
2022/12/11 01:56:16;;;;;;;80.10;27.10;;;;;;;0.13;92.03;99432.42;103580;1292;22467;-59
2022/12/11 01:58:51;;;;;;;78.40;28.30;;;;;;;0.11;92.05;99427.30;103511;1282;23036;-58
2022/12/11 02:01:30;;;;;;;78.10;29.50;;;;;;;0.10;92.14;99424.59;103675;1274;22488;-59
2022/12/11 02:04:04;;;;;;;76.80;29.70;;;;;;;0.09;92.07;99419.81;103532;1282;22478;-59
2022/12/11 02:06:39;;;;;;;80.60;27.40;;;;;;;0.08;92.23;99408.70;103489;1282;22478;-59
2022/12/11 02:09:14;;;;;;;72.60;26.50;;;;;;;0.10;92.28;99407.33;103528;1306;22742;-58
2022/12/11 02:11:59;;;;;;;83.30;28.40;;;;;;;0.10;92.06;99401.76;103501;1286;22458;-59
2022/12/11 02:14:39;;;;;;;85.90;30.70;;;;;;;0.10;92.12;99394.55;103478;1306;26735;-60
2022/12/11 02:17:15;;;;;;;83.30;30.20;;;;;;;0.09;92.12;99390.88;103228;1300;22429;-59
2022/12/11 02:20:02;;;;;;;70.80;29.10;;;;;;;0.07;92.15;99389.27;103556;1287;22470;-58
2022/12/11 02:22:54;;;;;;;83.30;31.40;;;;;;;0.07;92.15;99386.94;103533;1282;25274;-58
2022/12/11 02:25:32;;;;;;;82.60;31.60;;;;;;;0.08;92.22;99388.71;103488;1282;25383;-58
2022/12/11 02:28:22;;;;;;;69.50;28.60;;;;;;;0.07;92.16;99383.64;103546;1281;26131;-60
2022/12/11 02:30:54;;;;;;;;;;;;;;;0.06;92.10;99385.09;103551;1285;22456;-59
2022/12/11 02:33:33;;;;;;;77.00;30.40;;;;;;;0.03;92.10;99380.85;103567;1306;22481;-59
2022/12/11 02:36:07;;;;;;;82.10;31.10;;;;;;;0.02;92.03;99378.44;103604;1306;22555;-59
2022/12/11 02:38:45;;;;;;;81.60;31.20;;;;;;;0.00;92.21;99377.36;103499;1306;22500;-58
2022/12/11 02:41:18;;;;;;;74.70;27.90;;;;;;;0.00;92.04;99377.38;103559;1282;24325;-59
2022/12/11 02:43:54;;;;;;;72.30;28.60;;;;;;;-0.03;91.93;99378.92;103490;1306;22475;-58
2022/12/11 02:46:29;;;;;;;76.90;30.60;;;;;;;-0.04;91.91;99384.75;103448;1306;22470;-59
2022/12/11 02:49:03;;;;;;;74.00;28.20;;;;;;;-0.04;92.04;99386.79;103453;1280;25437;-58
2022/12/11 02:51:38;;;;;;;72.30;30.10;;;;;;;-0.04;92.04;99390.96;103205;1287;24430;-58
2022/12/11 02:54:13;;;;;;;70.60;29.20;;;;;;;-0.09;92.13;99390.83;103212;1298;22482;-59
2022/12/11 02:56:50;;;;;;;78.60;30.20;;;;;;;-0.12;92.18;99388.34;103613;1306;22727;-59
2022/12/11 02:59:26;;;;;;;77.10;29.40;;;;;;;-0.14;92.32;99388.38;103535;1298;22525;-60
2022/12/11 03:01:57;;;;;;;86.00;34.40;;;;;;;-0.15;92.30;99393.33;103566;1294;22495;-59
2022/12/11 03:04:29;;;;;;;79.70;31.40;;;;;;;-0.15;92.34;99396.63;103528;1292;22412;-60
2022/12/11 03:07:10;;;;;;;82.30;32.40;;;;;;;-0.17;92.29;99393.52;103540;1306;22545;-59
2022/12/11 03:09:44;;;;;;;72.10;28.70;;;;;;;-0.17;92.36;99396.83;103538;1278;22486;-60
2022/12/11 03:12:20;;;;;;;77.00;29.30;;;;;;;-0.22;92.34;99391.94;103559;1282;22470;-59
2022/12/11 03:14:54;;;;;;;75.10;29.50;;;;;;;-0.27;92.30;99395.51;103643;1298;22468;-59
2022/12/11 03:17:31;;;;;;;80.00;31.40;;;;;;;-0.33;92.37;99393.84;103573;1305;22441;-59
2022/12/11 03:20:11;;;;;;;89.10;32.30;;;;;;;-0.37;92.45;99396.09;103523;1282;22477;-60
2022/12/11 03:22:47;;;;;;;75.00;28.20;;;;;;;-0.37;92.55;99397.35;103630;1282;25068;-60
2022/12/11 03:25:21;;;;;;;71.00;28.40;;;;;;;-0.38;92.66;99399.42;103579;1282;25372;-59
2022/12/11 03:27:58;;;;;;;69.60;27.90;;;;;;;-0.40;92.63;99397.36;103792;1282;22516;-59
2022/12/11 03:30:31;;;;;;;71.20;27.90;;;;;;;-0.43;92.60;99398.20;103603;1282;25387;-58
2022/12/11 03:33:08;;;;;;;73.20;26.00;;;;;;;-0.47;92.71;99395.23;103560;1304;25573;-59
2022/12/11 03:35:41;;;;;;;68.70;28.00;;;;;;;-0.48;92.65;99395.02;103542;1306;22416;-59
2022/12/11 03:38:18;;;;;;;71.80;28.80;;;;;;;-0.49;92.82;99394.81;103634;1282;25315;-59
2022/12/11 03:40:54;;;;;;;70.50;28.50;;;;;;;-0.48;92.90;99395.27;103604;1285;22544;-59
2022/12/11 03:43:29;;;;;;;70.50;25.20;;;;;;;-0.47;92.97;99398.61;103638;1306;25437;-59
2022/12/11 03:46:01;;;;;;;69.00;29.00;;;;;;;-0.50;92.89;99395.61;103549;1306;22471;-59
2022/12/11 03:48:36;;;;;;;63.70;20.40;;;;;;;-0.51;92.82;99390.55;103643;1278;24290;-59
2022/12/11 03:51:09;;;;;;;70.70;27.40;;;;;;;-0.51;92.83;99394.92;103511;1294;22530;-60
2022/12/11 03:53:41;;;;;;;69.30;25.10;;;;;;;-0.51;92.84;99389.60;103544;1306;22501;-59
2022/12/11 03:56:15;;;;;;;69.50;26.30;;;;;;;-0.50;92.98;99393.42;103488;1303;22507;-59
2022/12/11 03:58:46;;;;;;;72.40;28.00;;;;;;;-0.53;92.97;99396.06;103564;1282;25276;-58
2022/12/11 04:01:18;;;;;;;59.70;23.50;;;;;;;-0.54;93.07;99391.71;103591;1287;25537;-59
2022/12/11 04:03:49;;;;;;;65.30;25.40;;;;;;;-0.57;93.04;99380.34;103507;1280;24232;-59
2022/12/11 04:06:21;;;;;;;69.90;26.40;;;;;;;-0.61;93.27;99376.27;103549;1282;22436;-58
2022/12/11 04:08:53;;;;;;;74.60;26.70;;;;;;;-0.65;93.30;99376.43;103592;1306;25070;-58
2022/12/11 04:11:38;;;;;;;74.20;29.00;;;;;;;-0.68;93.40;99373.38;103555;1282;24047;-60
2022/12/11 04:17:02;;;;;;;73.50;26.20;;;;;;;-0.67;93.45;99375.86;103370;1306;22589;-60
2022/12/11 04:25:11;;;;;;;66.00;24.20;;;;;;;-0.72;93.56;99372.77;103633;1281;24263;-60
2022/12/11 04:27:49;;;;;;;68.90;26.60;;;;;;;-0.72;93.53;99371.42;103607;1282;22484;-60
2022/12/11 04:30:23;;;;;;;71.30;25.30;;;;;;;-0.72;93.64;99370.00;103496;1306;24219;-61
2022/12/11 04:32:56;;;;;;;76.20;26.60;;;;;;;-0.71;93.50;99367.34;103720;1306;22420;-60
2022/12/11 04:35:27;;;;;;;75.00;27.90;;;;;;;-0.71;93.49;99361.69;103767;1306;22519;-60
2022/12/11 04:37:59;;;;;;;74.40;28.10;;;;;;;-0.69;93.57;99359.45;103793;1284;25393;-59
2022/12/11 04:40:31;;;;;;;66.50;25.40;;;;;;;-0.69;93.37;99359.31;103540;1306;24180;-60
2022/12/11 04:43:05;;;;;;;68.00;23.90;;;;;;;-0.70;93.23;99357.29;103644;1282;22474;-60
2022/12/11 04:45:36;;;;;;;66.40;28.20;;;;;;;-0.71;93.31;99355.04;103579;1305;22487;-60
2022/12/11 04:48:08;;;;;;;59.80;21.10;;;;;;;-0.70;93.15;99351.89;103748;1305;24262;-61
2022/12/11 04:50:39;;;;;;;54.90;21.60;;;;;;;-0.71;93.04;99351.11;103600;1278;23679;-60
2022/12/11 04:53:11;;;;;;;69.10;24.80;;;;;;;-0.71;93.11;99351.69;103754;1300;22518;-60
2022/12/11 04:55:42;;;;;;;70.00;24.00;;;;;;;-0.74;93.00;99352.98;103534;1298;22877;-60
2022/12/11 04:58:14;;;;;;;64.10;23.30;;;;;;;-0.75;93.04;99356.77;103625;1282;22544;-61
2022/12/11 05:00:45;;;;;;;60.50;21.60;;;;;;;-0.76;92.84;99356.64;103626;1284;22578;-59
2022/12/11 05:03:16;;;;;;;64.50;24.00;;;;;;;-0.79;92.55;99356.84;103591;1283;24264;-59
2022/12/11 05:05:53;;;;;;;64.40;24.10;;;;;;;-0.80;92.73;99356.70;103568;1306;24282;-59
2022/12/11 05:08:24;;;;;;;61.90;22.40;;;;;;;-0.77;92.86;99359.17;103510;1306;22426;-59
2022/12/11 05:10:59;;;;;;;59.50;23.30;;;;;;;-0.76;92.98;99360.45;103518;1277;24273;-59
2022/12/11 05:13:33;;;;;;;59.00;23.20;;;;;;;-0.77;92.86;99359.77;103595;1282;22485;-60
2022/12/11 05:16:05;;;;;;;58.90;23.80;;;;;;;-0.79;92.77;99355.36;103577;1282;22414;-60
2022/12/11 05:18:37;;;;;;;60.00;21.50;;;;;;;-0.80;92.79;99353.02;103563;1282;22650;-60
2022/12/11 05:21:12;;;;;;;58.20;23.80;;;;;;;-0.81;92.77;99350.54;103537;1282;24434;-61
2022/12/11 05:23:44;;;;;;;60.00;24.60;;;;;;;-0.82;92.74;99348.30;103608;1306;22878;-61
2022/12/11 05:26:18;;;;;;;59.60;23.80;;;;;;;-0.83;92.65;99344.71;103486;1306;26180;-59
2022/12/11 05:28:55;;;;;;;67.30;26.90;;;;;;;-0.83;92.61;99344.10;103512;1298;22476;-60
2022/12/11 05:31:28;;;;;;;69.00;25.20;;;;;;;-0.84;92.63;99344.66;103702;1292;24260;-60
2022/12/11 05:33:59;;;;;;;62.30;26.30;;;;;;;-0.86;92.56;99349.00;103637;1306;25601;-60
2022/12/11 05:36:34;;;;;;;63.90;24.10;;;;;;;-0.88;92.53;99351.55;103562;1282;24259;-57
2022/12/11 05:39:06;;;;;;;63.40;23.10;;;;;;;-0.88;92.52;99352.81;103603;1305;22529;-60
2022/12/11 05:41:37;;;;;;;61.10;24.20;;;;;;;-0.90;92.61;99348.32;103584;1301;22809;-59
2022/12/11 05:44:11;;;;;;;69.00;26.40;;;;;;;-0.92;92.44;99348.13;103627;1288;22487;-60
2022/12/11 05:46:42;;;;;;;61.50;25.60;;;;;;;-0.93;92.68;99341.79;103604;1306;22482;-60
2022/12/11 05:49:14;;;;;;;61.00;26.30;;;;;;;-0.91;92.61;99343.09;103487;1282;25263;-60
2022/12/11 05:51:45;;;;;;;58.30;22.70;;;;;;;-0.89;92.64;99342.71;103566;1281;24406;-60
2022/12/11 05:54:21;;;;;;;49.20;20.30;;;;;;;-0.88;92.52;99345.54;103508;1306;22481;-59
2022/12/11 05:56:53;;;;;;;51.40;21.20;;;;;;;-0.90;92.15;99343.70;103488;1306;22880;-61
2022/12/11 05:59:25;;;;;;;50.50;20.40;;;;;;;-0.91;92.31;99342.53;103555;1280;22573;-59
2022/12/11 06:01:56;;;;;;;62.90;26.40;;;;;;;-0.92;92.07;99340.98;103606;1284;24273;-60
2022/12/11 06:04:27;;;;;;;59.30;24.00;;;;;;;-0.91;92.09;99342.39;103545;1298;22498;-60
2022/12/11 06:06:59;;;;;;;52.60;22.50;;;;;;;-0.90;91.98;99347.14;103491;1305;22471;-60
2022/12/11 06:09:32;;;;;;;52.40;20.80;;;;;;;-0.90;92.12;99357.08;103507;1282;22495;-60
2022/12/11 06:12:03;;;;;;;56.60;22.60;;;;;;;-0.89;91.99;99357.69;103508;1298;22627;-61
2022/12/11 06:14:35;;;;;;;53.90;21.90;;;;;;;-0.91;91.87;99358.27;103509;1306;23213;-60
2022/12/11 06:17:07;;;;;;;59.50;23.90;;;;;;;-0.92;91.90;99363.45;103504;1306;22477;-60
2022/12/11 06:19:38;;;;;;;57.40;22.10;;;;;;;-0.93;91.89;99363.15;103542;1306;24272;-60
2022/12/11 06:22:10;;;;;;;58.60;24.10;;;;;;;-0.94;91.96;99361.37;103458;1279;24186;-60
2022/12/11 06:24:41;;;;;;;56.60;24.40;;;;;;;-0.93;91.97;99365.34;103410;1306;22474;-60
2022/12/11 06:27:13;;;;;;;56.30;22.40;;;;;;;-0.93;91.85;99369.42;103221;1280;22554;-60
2022/12/11 06:29:47;;;;;;;56.80;22.50;;;;;;;-0.94;91.79;99374.21;103465;1306;22543;-59
2022/12/11 06:32:19;;;;;;;59.50;22.80;;;;;;;-0.94;91.90;99374.14;103570;1274;25407;-60
2022/12/11 06:34:50;;;;;;;55.40;22.20;;;;;;;-0.95;91.83;99376.42;103662;1281;24294;-60
2022/12/11 06:37:22;;;;;;;52.00;19.80;;;;;;;-0.95;91.83;99378.23;103573;1281;22596;-59
2022/12/11 06:39:53;;;;;;;53.50;21.70;;;;;;;-0.97;91.64;99379.21;103459;1281;22486;-61
2022/12/11 06:42:24;;;;;;;55.80;23.20;;;;;;;-0.98;91.74;99383.94;103539;1282;22615;-61
2022/12/11 06:44:56;;;;;;;51.00;19.60;;;;;;;-0.97;91.86;99389.62;103430;1306;26758;-60
2022/12/11 06:47:27;;;;;;;48.40;19.50;;;;;;;-0.96;91.86;99389.20;103561;1284;22983;-60
2022/12/11 06:50:01;;;;;;;49.40;19.90;;;;;;;-0.96;91.47;99393.06;103401;1282;25387;-61
2022/12/11 06:52:32;;;;;;;55.90;23.10;;;;;;;-0.99;91.53;99391.55;103474;1282;25927;-59
2022/12/11 06:55:04;;;;;;;54.10;21.80;;;;;;;-1.01;91.41;99395.41;103469;1282;22487;-61
2022/12/11 06:57:36;;;;;;;51.20;20.30;;;;;;;-1.02;91.52;99389.95;103406;1306;22551;-61
2022/12/11 07:00:09;;;;;;;56.70;21.90;;;;;;;-1.01;91.65;99390.11;103312;1280;24263;-61
2022/12/11 07:02:41;;;;;;;47.30;20.20;;;;;;;-1.02;91.50;99394.50;103142;1281;24217;-61
2022/12/11 07:05:12;;;;;;;53.00;22.60;;;;;;;-1.03;91.38;99395.08;103450;1306;25177;-61
2022/12/11 07:07:44;;;;;;;49.20;19.20;;;;;;;-1.05;91.26;99395.11;103464;1306;22484;-61
2022/12/11 07:10:15;;;;;;;45.70;19.80;;;;;;;-1.07;91.13;99393.83;103506;1306;22476;-61
2022/12/11 07:12:46;;;;;;;48.30;19.60;;;;;;;-1.10;91.19;99395.91;103449;1292;25309;-61
2022/12/11 07:15:18;;;;;;;52.30;21.10;;;;;;;-1.12;91.28;99386.95;103436;1306;23897;-61
2022/12/11 07:17:49;;;;;;;54.50;22.50;;;;;;;-1.14;91.20;99384.09;103493;1306;22494;-60
2022/12/11 07:20:20;;;;;;;46.70;18.00;;;;;;;-1.14;91.20;99387.39;103406;1303;22490;-61
2022/12/11 07:22:54;;;;;;;48.80;21.00;;;;;;;-1.16;91.34;99395.71;103579;1296;22530;-61
2022/12/11 07:25:25;;;;;;;52.80;22.40;;;;;;;-1.18;91.24;99395.52;103377;1282;25385;-60
2022/12/11 07:27:56;;;;;;;48.70;19.60;;;;;;;-1.19;91.46;99395.46;103543;1282;22518;-60
2022/12/11 07:30:28;;;;;;;50.00;20.90;;;;;;;-1.19;91.20;99395.00;103444;1291;22436;-60
2022/12/11 07:33:00;;;;;;;46.90;19.70;;;;;;;-1.20;91.36;99399.92;103592;1274;22585;-59
2022/12/11 07:35:31;;;;;;;38.00;16.10;;;;;;;-1.20;91.14;99398.46;103565;1300;22516;-60
2022/12/11 07:38:03;;;;;;;48.70;19.20;;;;;;;-1.19;91.30;99406.02;103540;1282;25849;-61
2022/12/11 07:40:35;;;;;;;49.20;19.60;;;;;;;-1.19;91.28;99405.87;103472;1282;25409;-61
2022/12/11 07:43:07;;;;;;;57.50;22.00;;;;;;;-1.19;91.42;99401.34;103480;1306;25369;-60
2022/12/11 07:45:38;;;;;;;54.80;20.00;;;;;;;-1.18;91.23;99403.67;103393;1306;23115;-60
2022/12/11 07:48:11;;;;;;;44.10;17.60;;;;;;;-1.19;91.16;99399.38;103506;1292;23101;-60
2022/12/11 07:50:42;;;;;;;44.10;17.80;;;;;;;-1.21;91.09;99399.02;103548;1306;22550;-60
2022/12/11 07:53:14;;;;;;;47.30;18.10;;;;;;;-1.21;91.13;99393.70;103527;1281;22490;-59
2022/12/11 07:55:45;;;;;;;51.50;19.70;;;;;;;-1.20;91.09;99394.33;103547;1306;22687;-60
2022/12/11 07:58:17;;;;;;;43.50;17.90;;;;;;;-1.19;91.32;99393.58;103531;1306;23859;-60
2022/12/11 08:00:48;;;;;;;44.80;16.90;;;;;;;-1.19;90.87;99388.75;103447;1306;22534;-59
2022/12/11 08:03:20;;;;;;;44.80;17.50;;;;;;;-1.21;90.50;99390.96;103412;1281;22472;-61
2022/12/11 08:05:52;;;;;;;43.90;16.30;;;;;;;-1.23;90.03;99396.40;103535;1281;25387;-61
2022/12/11 08:08:24;;;;;;;44.30;16.10;;;;;;;-1.25;89.95;99399.17;103469;1304;24302;-60
2022/12/11 08:11:00;;;;;;;42.30;15.80;;;;;;;-1.25;90.05;99401.84;103393;1280;22833;-61
2022/12/11 08:13:32;;;;;;;39.90;15.60;;;;;;;-1.25;89.99;99403.17;103437;1278;22487;-60
2022/12/11 08:16:08;;;;;;;43.70;16.00;;;;;;;-1.24;90.24;99409.49;103372;1282;24729;-61
2022/12/11 08:18:42;;;;;;;41.40;17.30;;;;;;;-1.23;90.27;99403.84;103439;1282;22946;-60
2022/12/11 08:21:17;;;;;;;44.30;16.60;;;;;;;-1.21;90.15;99402.63;103396;1276;22567;-61
2022/12/11 08:23:48;;;;;;;42.60;15.70;;;;;;;-1.20;90.23;99403.06;103463;1306;23874;-61
2022/12/11 08:26:22;;;;;;;40.80;17.10;;;;;;;-1.21;89.81;99395.27;103347;1306;24263;-62
2022/12/11 08:28:54;;;;;;;46.50;18.20;;;;;;;-1.23;90.01;99393.82;103428;1298;25396;-59
2022/12/11 08:31:26;;;;;;;46.80;16.90;;;;;;;-1.25;89.81;99395.48;103551;1306;23891;-59
2022/12/11 08:33:58;;;;;;;48.00;17.60;;;;;;;-1.26;89.96;99395.04;103628;1274;22481;-60
2022/12/11 08:36:30;;;;;;;43.00;18.30;;;;;;;-1.26;90.05;99394.11;103413;1282;25527;-59
2022/12/11 08:39:02;;;;;;;48.80;18.50;;;;;;;-1.26;90.10;99396.77;103443;1306;25900;-59
2022/12/11 08:41:33;;;;;;;48.60;18.40;;;;;;;-1.25;90.31;99391.28;103524;1298;22619;-59
2022/12/11 08:44:05;;;;;;;46.80;17.30;;;;;;;-1.24;90.17;99391.34;103435;1281;23512;-60
2022/12/11 08:46:38;;;;;;;45.70;18.40;;;;;;;-1.25;90.14;99392.84;103381;1282;25492;-61
2022/12/11 08:49:11;;;;;;;50.30;20.10;;;;;;;-1.24;90.15;99391.95;103470;1281;22530;-59
2022/12/11 08:51:43;;;;;;;39.80;14.10;;;;;;;-1.24;90.08;99395.17;103347;1306;26599;-59
2022/12/11 08:54:14;;;;;;;41.80;15.60;;;;;;;-1.26;89.55;99395.37;103321;1285;25905;-60
2022/12/11 08:56:45;;;;;;;41.10;15.20;;;;;;;-1.27;89.48;99396.80;103286;1303;22748;-58
2022/12/11 08:59:17;;;;;;;40.30;16.00;;;;;;;-1.29;89.17;99400.81;103297;1299;22481;-58
2022/12/11 09:01:48;;;;;;;36.90;13.20;;;;;;;-1.31;89.11;99408.90;103259;1281;23956;-55
2022/12/11 09:04:19;;;;;;;39.20;12.90;;;;;;;-1.31;88.94;99405.24;103436;1282;22475;-57
2022/12/11 09:06:51;;;;;;;39.60;13.70;;;;;;;-1.32;88.99;99405.40;103275;1285;22781;-56
2022/12/11 09:09:23;;;;;;;39.50;15.00;;;;;;;-1.33;89.02;99405.98;103293;1306;22483;-56
2022/12/11 09:11:55;;;;;;;43.90;16.40;;;;;;;-1.36;88.83;99404.32;103316;1277;22906;-57
2022/12/11 09:14:26;;;;;;;37.10;13.50;;;;;;;-1.40;88.83;99396.63;103575;1285;22484;-58
2022/12/11 09:16:58;;;;;;;37.10;14.70;;;;;;;-1.43;88.66;99392.30;103221;1281;24291;-58
2022/12/11 09:19:29;;;;;;;35.40;14.20;;;;;;;-1.45;88.96;99392.05;103071;1291;23237;-57
2022/12/11 09:22:01;;;;;;;42.20;14.30;;;;;;;-1.47;89.04;99389.11;103022;1285;25277;-56
2022/12/11 09:24:33;;;;;;;38.50;15.40;;;;;;;-1.48;88.91;99385.69;102961;1282;22538;-66
2022/12/11 09:27:05;;;;;;;42.20;16.30;;;;;;;-1.50;89.04;99386.88;103087;1282;22488;-60
2022/12/11 09:29:36;;;;;;;62.60;21.50;;;;;;;-1.51;89.16;99382.69;103257;1283;22490;-57
2022/12/11 09:32:08;;;;;;;43.40;17.20;;;;;;;-1.54;89.08;99378.50;103296;1282;22747;-58
2022/12/11 09:34:39;;;;;;;50.10;18.10;;;;;;;-1.55;89.15;99374.95;103056;1274;24330;-57
2022/12/11 09:37:12;;;;;;;39.30;12.50;;;;;;;-1.58;89.27;99373.64;103214;1290;22478;-58
2022/12/11 09:39:43;;;;;;;40.60;15.20;;;;;;;-1.59;88.98;99369.08;103376;1289;22486;-58
2022/12/11 09:42:21;;;;;;;42.40;13.90;;;;;;;-1.61;88.99;99365.20;102999;1274;25240;-60
2022/12/11 09:44:54;;;;;;;37.90;13.50;;;;;;;-1.61;88.81;99360.67;103042;1282;22464;-60
2022/12/11 09:47:32;;;;;;;35.40;14.50;;;;;;;-1.61;89.08;99353.71;103190;1280;24766;-58
2022/12/11 09:50:15;;;;;;;39.10;14.40;;;;;;;-1.59;89.22;99355.23;103182;1300;22500;-59
2022/12/11 09:53:01;;;;;;;32.10;12.80;;;;;;;-1.57;89.16;99355.51;103149;1282;24200;-59
2022/12/11 09:55:43;;;;;;;33.60;12.90;;;;;;;-1.58;88.91;99354.52;103218;1281;22789;-60
2022/12/11 09:58:29;;;;;;;42.60;14.40;;;;;;;-1.60;88.93;99352.27;103146;1281;22477;-59
2022/12/11 10:01:09;;;;;;;38.60;15.10;;;;;;;-1.62;88.93;99347.70;103092;1280;22484;-59
2022/12/11 10:04:01;;;;;;;41.30;14.20;;;;;;;-1.62;89.08;99340.34;103123;1288;23896;-60
2022/12/11 10:06:38;;;;;;;37.40;14.60;;;;;;;-1.60;89.27;99338.13;103011;1280;25361;-58
2022/12/11 10:09:20;;;;;;;34.90;11.90;;;;;;;-1.58;89.33;99340.12;103343;1282;22495;-60
2022/12/11 10:12:06;;;;;;;39.20;14.20;;;;;;;-1.57;88.88;99341.35;103200;1280;22485;-59
2022/12/11 10:14:56;;;;;;;39.30;14.00;;;;;;;-1.57;88.73;99341.19;103248;1288;22791;-59
2022/12/11 10:17:31;;;;;;;43.40;17.80;;;;;;;-1.59;88.74;99345.92;103470;1280;22472;-61
2022/12/11 10:20:16;;;;;;;44.90;17.00;;;;;;;-1.60;88.75;99342.73;103166;1306;24057;-59
2022/12/11 10:22:48;;;;;;;60.80;24.40;;;;;;;-1.63;88.73;99330.59;103296;1281;22469;-60
2022/12/11 10:25:25;;;;;;;46.50;17.50;;;;;;;-1.63;88.78;99329.91;103115;1281;22469;-58
2022/12/11 10:27:57;;;;;;;47.00;17.80;;;;;;;-1.65;88.59;99318.66;103284;1307;23757;-58
2022/12/11 10:30:35;;;;;;;41.80;16.60;;;;;;;-1.64;88.78;99312.23;103186;1293;24046;-57
2022/12/11 10:33:18;;;;;;;40.80;14.70;;;;;;;-1.62;88.47;99313.15;103338;1306;24936;-60
2022/12/11 10:35:52;;;;;;;41.10;16.80;;;;;;;-1.63;88.21;99315.34;103235;1282;22482;-63
2022/12/11 10:38:28;;;;;;;35.20;12.80;;;;;;;-1.63;88.33;99315.11;103278;1288;22476;-60
2022/12/11 10:41:01;;;;;;;38.70;14.40;;;;;;;-1.63;88.14;99315.05;103294;1280;25285;-58
2022/12/11 10:43:38;;;;;;;34.70;13.70;;;;;;;-1.64;87.67;99311.38;103078;1281;22474;-61
2022/12/11 10:46:17;;;;;;;32.60;13.30;;;;;;;-1.64;87.72;99312.55;103316;1291;22626;-60
2022/12/11 10:48:52;;;;;;;37.40;13.40;;;;;;;-1.62;87.48;99313.69;103343;1288;22482;-61
2022/12/11 10:51:25;;;;;;;58.30;24.20;;;;;;;-1.63;87.55;99314.25;103145;1280;25465;-61
2022/12/11 10:54:06;;;;;;;45.90;21.10;;;;;;;-1.63;87.62;99310.11;103140;1288;22492;-59
2022/12/11 10:56:39;;;;;;;38.10;15.90;;;;;;;-1.63;87.74;99306.50;102981;1306;22586;-58
2022/12/11 10:59:21;;;;;;;36.40;14.20;;;;;;;-1.61;87.43;99308.61;103194;1284;24272;-59
2022/12/11 11:01:53;;;;;;;32.40;13.00;;;;;;;-1.62;87.11;99305.16;103170;1281;22522;-61
2022/12/11 11:04:31;;;;;;;30.60;11.80;;;;;;;-1.61;86.72;99307.27;103194;1281;22469;-62
2022/12/11 11:07:14;;;;;;;29.60;10.90;;;;;;;-1.62;86.64;99302.99;103251;1306;22476;-62
2022/12/11 11:09:46;;;;;;;28.90;11.40;;;;;;;-1.63;86.70;99293.95;103648;1283;23412;-61
2022/12/11 11:12:25;;;;;;;29.80;11.60;;;;;;;-1.65;86.87;99291.30;102746;1281;22602;-62
2022/12/11 11:15:04;;;;;;;29.00;10.30;;;;;;;-1.65;86.25;99296.38;103143;1282;22514;-60
2022/12/11 11:17:45;;;;;;;33.00;13.00;;;;;;;-1.66;86.55;99286.71;103491;1298;25428;-60
2022/12/11 11:20:20;;;;;;;27.50;11.90;;;;;;;-1.65;86.57;99287.87;103677;1288;22520;-62
2022/12/11 11:22:55;;;;;;;29.30;10.60;;;;;;;-1.66;86.36;99280.84;103388;1282;22571;-60
2022/12/11 11:25:29;;;;;;;28.70;10.90;;;;;;;-1.67;86.43;99280.15;103259;1288;25393;-61
2022/12/11 11:28:03;;;;;;;27.40;10.80;;;;;;;-1.68;86.45;99272.42;103233;1285;22471;-62
2022/12/11 11:30:38;;;;;;;29.50;10.60;;;;;;;-1.70;85.89;99274.27;103780;1280;22965;-62
2022/12/11 11:33:18;;;;;;;32.40;12.40;;;;;;;-1.71;86.21;99272.19;103331;1297;25386;-61
2022/12/11 11:35:57;;;;;;;27.40;11.20;;;;;;;-1.73;86.30;99269.02;103361;1303;24375;-63
2022/12/11 11:38:33;;;;;;;33.20;13.00;;;;;;;-1.74;86.33;99270.21;103329;1288;22873;-60
2022/12/11 11:41:15;;;;;;;30.80;11.90;;;;;;;-1.76;86.68;99271.17;103339;1280;25381;-60
2022/12/11 11:43:49;;;;;;;29.30;9.90;;;;;;;-1.77;86.62;99270.58;103514;1296;22517;-61
2022/12/11 11:46:25;;;;;;;30.00;13.20;;;;;;;-1.78;86.94;99263.73;103293;1285;25392;-60
2022/12/11 11:49:05;;;;;;;30.20;12.30;;;;;;;-1.79;86.85;99252.89;103265;1288;22740;-62
2022/12/11 11:51:39;;;;;;;29.50;11.10;;;;;;;-1.81;86.73;99253.05;103323;1291;25216;-62